KPBG/PBG METAR and TAF weather

Enter ICAO airport designator
Station Type Date Time Source
KPBG METAR 2019/10/23 12:53 UTC NOAA

KPBG 231253Z AUTO 00000KT 10SM OVC080 13/10 A2982 RMK AO2 SLP099 T01330100


Station Type Date Time Source
KPBG Decoded METAR 2019/10/23 12:53 UTC NOAA

PLATTSBURGH INTERNATIONAL AIRPORT, NY, United States (KPBG) 44-39N 073-28W
Oct 23, 2019 - 08:53 AM EDT / 2019.10.23 1253 UTC
Wind: Calm:0
Visibility: 10 mile(s):0
Sky conditions: overcast
Temperature: 55.9 F (13.3 C)
Dew Point: 50.0 F (10.0 C)
Relative Humidity: 80%
Pressure (altimeter): 29.82 in. Hg (1009 hPa)
ob: KPBG 231253Z AUTO 00000KT 10SM OVC080 13/10 A2982 RMK AO2 SLP099 T01330100
cycle: 13

Station Type Date Time Source
KPBG TAF 2019/10/23 12:39 UTC NOAA

TAF KPBG 231135Z 2312/2412 VRB03KT P6SM SCT080
FM231400 24006KT P6SM SCT070
FM232000 23008KT P6SM FEW060
FM240200 21005KT P6SM SCT070
FM240700 VRB03KT P6SM FEW150

Example: see airport list